In Rescue
 
Open Full Screen Window  High Contrast Mode
Wind Gusting 00 knots
03
May 20, 2019 1:49 PM CDT
Weather Information
Wind Direction
  180 °
Wind Speed
  03 kt (3 mph)
Wind Gust
  00 kt (0 mph)
Altimeter
30.12 in
Visibility
10 SM
Temperature
15° C
59° F
Dewpoint
03° C
37° F
Humidity
45%
1hr Rain Fall
00.00 in.
24hr Rain Fall
00.01 in.
Sky Condition
Scattered @ 6,000 ft
VFR

METAR KFFM 201849Z AUTO 18003KT 10SM SCT060 15/03 A3012 RMK AO2

FAA Disclaimer: The data displayed is for advisory purposes only and is not to be used for flight planning or operations.